Houn Maru — JG5489 — position and weather

sailwx.info

Track history (hours):
 
Tides and Currents Weather Stations Pressure Air Temp Water Temp Dewpoint Dewpoint Depression Visibility Wind Speed Wind Dir Waves Ship Positions

Houn Maru

Last reported at 2017-Jun-28 07:42 UTC. Time now 2017-Jun-29 14:26 UTC.
Position N 34°36' E 134°55'.

Length 91 m; draft 6 m.

Type: Tanker. MMSI: 431101172.

Date/timePositionNaut miles runAvg speedWind from/ knotsBaromVisibWave heightAir tempDewpointWater temp
2017-Jun-28 07:42N 34°36' E 134°55'3 9.8
2017-Jun-28 07:26N 34°37' E 134°58'4 8.5
2017-Jun-28 07:00N 34°37' E 135°02'510.1
2017-Jun-28 06:30N 34°33' E 135°06'612.0
2017-Jun-28 06:00N 34°27' E 135°09'5 8.1
2017-Jun-28 05:26N 34°25' E 135°14'0 0.0
2017-Jun-28 00:30N 34°25' E 135°14'0 0.4
2017-Jun-28 00:00N 34°25' E 135°14'2 3.9
2017-Jun-27 23:30N 34°23' E 135°13'0 0.0
2017-Jun-27 23:00N 34°23' E 135°13'0 0.0
2017-Jun-27 22:30N 34°23' E 135°13'0 0.0
2017-Jun-27 22:00N 34°23' E 135°13'0 0.0
2017-Jun-27 21:30N 34°23' E 135°13'0 0.0
2017-Jun-27 21:00N 34°23' E 135°13'0 0.0
2017-Jun-27 20:30N 34°23' E 135°13'0 0.0
2017-Jun-27 19:58N 34°23' E 135°13'0 0.0
2017-Jun-27 19:26N 34°23' E 135°13'0 0.0
2017-Jun-27 18:59N 34°23' E 135°13'0 0.0
2017-Jun-27 18:30N 34°23' E 135°13'0 0.0
2017-Jun-27 18:00N 34°23' E 135°13'0 0.0
2017-Jun-27 17:27N 34°23' E 135°13'3 5.9
2017-Jun-27 17:00N 34°25' E 135°10'611.6
2017-Jun-27 16:30N 34°30' E 135°06'510.7
2017-Jun-27 16:00N 34°35' E 135°04'4 8.7
2017-Jun-27 15:30N 34°37' E 134°59'11 0.3
2017-Jun-26 08:14N 34°33' E 134°47'511.0
2017-Jun-26 07:47N 34°35' E 134°52'310.2
2017-Jun-26 07:29N 34°36' E 134°56'5 9.1
2017-Jun-26 06:59N 34°37' E 135°01'3 6.8
2017-Jun-26 06:30N 34°35' E 135°04'4 8.9
2017-Jun-26 06:00N 34°32' E 135°07'611.4
2017-Jun-26 05:29N 34°26' E 135°10'4 7.7
2017-Jun-26 04:59N 34°25' E 135°14'0 0.2
2017-Jun-26 04:29N 34°25' E 135°14'0 0.0
2017-Jun-26 04:00N 34°25' E 135°14'0 0.0
2017-Jun-26 03:30N 34°25' E 135°14'0 0.0
2017-Jun-26 03:00N 34°25' E 135°14'0 0.0
2017-Jun-26 02:30N 34°25' E 135°14'0 0.0
2017-Jun-26 02:00N 34°25' E 135°14'0 0.0
2017-Jun-26 01:29N 34°25' E 135°14'0 0.0
2017-Jun-26 01:00N 34°25' E 135°14'0 0.0
2017-Jun-26 00:18N 34°25' E 135°14'0 1.2
2017-Jun-25 23:58N 34°25' E 135°14'2 2.1
2017-Jun-25 23:09N 34°23' E 135°13'0 0.0
2017-Jun-25 22:51N 34°23' E 135°13'0 0.0
2017-Jun-25 22:30N 34°23' E 135°13'0 0.0
2017-Jun-25 21:57N 34°23' E 135°13'0 0.0
2017-Jun-25 21:27N 34°23' E 135°13'0 0.0
2017-Jun-25 21:00N 34°23' E 135°13'0 0.0
2017-Jun-25 20:30N 34°23' E 135°13'0 0.0
2017-Jun-25 20:00N 34°23' E 135°13'0 0.0
2017-Jun-25 19:30N 34°23' E 135°13'0 0.0
2017-Jun-25 19:00N 34°23' E 135°13'0 0.0
2017-Jun-25 14:44N 34°23' E 135°13'2 3.0
2017-Jun-25 14:00N 34°25' E 135°11'611.4
2017-Jun-25 13:30N 34°30' E 135°07'510.5
2017-Jun-25 13:00N 34°34' E 135°04'4 7.2
2017-Jun-25 12:30N 34°37' E 135°01'4 0.1
2017-Jun-24 07:31N 34°37' E 134°56'013.4
2017-Jun-24 07:30N 34°37' E 134°56'510.6
2017-Jun-24 07:01N 34°37' E 135°02'4 8.3
2017-Jun-24 06:30N 34°34' E 135°06'510.7
2017-Jun-24 05:59N 34°29' E 135°09'511.5
2017-Jun-24 05:31N 34°24' E 135°12'2 0.3
2017-Jun-24 00:07N 34°25' E 135°14'0 1.2
2017-Jun-23 23:55N 34°25' E 135°14'2 4.5
2017-Jun-23 23:30N 34°23' E 135°13'0 0.1
2017-Jun-23 22:55N 34°23' E 135°13'0 0.0
2017-Jun-23 22:19N 34°23' E 135°13'0 0.0
2017-Jun-23 21:58N 34°23' E 135°13'0 0.0
2017-Jun-23 21:28N 34°23' E 135°13'0 0.0
2017-Jun-23 20:58N 34°23' E 135°13'0 0.0
2017-Jun-23 20:25N 34°23' E 135°13'0 0.0
2017-Jun-23 19:58N 34°23' E 135°13'0 0.0
2017-Jun-23 19:28N 34°23' E 135°13'0 0.0
2017-Jun-23 18:58N 34°23' E 135°13'0 0.0
2017-Jun-23 18:25N 34°23' E 135°13'0 0.0
2017-Jun-23 17:55N 34°23' E 135°13'0 0.0
2017-Jun-23 17:28N 34°23' E 135°13'0 0.0
2017-Jun-23 16:31N 34°23' E 135°13'0 0.0
2017-Jun-23 16:13N 34°23' E 135°13'0 0.1
2017-Jun-23 15:43N 34°23' E 135°13'0 0.0
2017-Jun-23 15:25N 34°23' E 135°13'0 1.1
2017-Jun-23 15:00N 34°24' E 135°12'1211.2
2017-Jun-23 13:59N 34°33' E 135°05'510.3
2017-Jun-23 13:30N 34°37' E 135°01'611.3
2017-Jun-23 13:00N 34°35' E 134°54'4 0.2
2017-Jun-22 12:47N 34°34' E 134°49'514.3
2017-Jun-22 12:25N 34°36' E 134°55'513.2
2017-Jun-22 12:00N 34°37' E 135°01'713.2
2017-Jun-22 11:30N 34°32' E 135°07'612.8
2017-Jun-22 11:00N 34°27' E 135°10'4 7.3
2017-Jun-22 10:30N 34°25' E 135°14'0 0.0
2017-Jun-22 05:28N 34°25' E 135°14'0 0.8
2017-Jun-22 05:00N 34°25' E 135°14'2 2.8
2017-Jun-22 04:27N 34°24' E 135°13'0 0.7
2017-Jun-22 03:58N 34°23' E 135°13'0 0.0
2017-Jun-22 03:25N 34°23' E 135°13'0 0.0
2017-Jun-22 02:58N 34°23' E 135°13'0 0.0
2017-Jun-22 00:46N 34°23' E 135°13'0 0.0
2017-Jun-22 00:19N 34°23' E 135°13'0 0.1
2017-Jun-21 23:43N 34°23' E 135°13'0 0.0
2017-Jun-21 23:25N 34°23' E 135°13'0 0.0
2017-Jun-21 22:55N 34°23' E 135°13'0 0.0
2017-Jun-21 22:28N 34°23' E 135°13'0 0.0
2017-Jun-21 21:55N 34°23' E 135°13'0 0.0
2017-Jun-21 21:28N 34°23' E 135°13'0 0.0
2017-Jun-21 20:58N 34°23' E 135°13'0 0.0
2017-Jun-21 20:28N 34°23' E 135°13'0 0.0
2017-Jun-21 19:58N 34°23' E 135°13'0 0.0
2017-Jun-21 19:16N 34°23' E 135°13'0 0.1
2017-Jun-21 18:58N 34°23' E 135°13'0 0.0
2017-Jun-21 18:25N 34°23' E 135°13'0 0.0
2017-Jun-21 17:58N 34°23' E 135°13'0 0.0
2017-Jun-21 17:22N 34°23' E 135°13'0 0.0
2017-Jun-21 14:43N 34°23' E 135°13'0 0.0
2017-Jun-21 13:37N 34°23' E 135°13'0 0.0
2017-Jun-21 12:34N 34°23' E 135°13'0 0.0
2017-Jun-21 12:25N 34°23' E 135°13'0 0.0
2017-Jun-21 11:43N 34°23' E 135°13'0 0.0
2017-Jun-21 11:25N 34°23' E 135°13'0 0.0
2017-Jun-21 06:07N 34°23' E 135°13'0 0.0
2017-Jun-21 05:58N 34°23' E 135°13'0 0.0
2017-Jun-21 01:49N 34°23' E 135°13'0 0.1
2017-Jun-21 01:08N 34°23' E 135°13'0 0.0
2017-Jun-21 00:56N 34°23' E 135°13'0 0.0
2017-Jun-21 00:14N 34°23' E 135°13'0 0.0
2017-Jun-20 23:58N 34°23' E 135°13'0 0.0
2017-Jun-20 23:22N 34°23' E 135°13'0 0.0
2017-Jun-20 22:59N 34°23' E 135°13'0 0.1
2017-Jun-20 22:16N 34°23' E 135°13'0 0.3
2017-Jun-20 21:49N 34°23' E 135°12'0 0.0
2017-Jun-20 21:07N 34°23' E 135°12'0 0.1
2017-Jun-20 20:55N 34°23' E 135°12'0 0.0
2017-Jun-20 20:25N 34°23' E 135°12'0 0.0
2017-Jun-20 19:49N 34°23' E 135°12'0 0.0
2017-Jun-20 19:19N 34°23' E 135°12'0 0.0
2017-Jun-20 18:37N 34°23' E 135°12'0 0.0
2017-Jun-20 18:25N 34°23' E 135°12'0 0.0
2017-Jun-20 17:55N 34°23' E 135°12'0 0.0
2017-Jun-20 17:25N 34°23' E 135°12'0 0.1
2017-Jun-20 16:55N 34°23' E 135°13'0 0.0
2017-Jun-20 16:25N 34°23' E 135°13'0 0.0
2017-Jun-20 15:43N 34°23' E 135°13'0 0.0
2017-Jun-20 15:01N 34°23' E 135°13'0 0.0
2017-Jun-20 14:49N 34°23' E 135°13'0 0.0
2017-Jun-20 13:55N 34°23' E 135°13'0 0.2
2017-Jun-20 13:25N 34°23' E 135°13'3 7.6
2017-Jun-20 13:00N 34°25' E 135°10'611.9
2017-Jun-20 12:30N 34°30' E 135°06'611.5
2017-Jun-20 12:00N 34°36' E 135°03'9 0.3
2017-Jun-19 07:17N 34°35' E 134°52'614.1
2017-Jun-19 06:51N 34°37' E 134°59'514.0
2017-Jun-19 06:30N 34°36' E 135°04'612.2
2017-Jun-19 06:00N 34°30' E 135°08'612.7
2017-Jun-19 05:30N 34°25' E 135°12'2 4.4
2017-Jun-19 05:00N 34°25' E 135°14'0 0.0
2017-Jun-19 00:10N 34°25' E 135°14'0 1.0
2017-Jun-18 23:57N 34°25' E 135°14'2 4.4
2017-Jun-18 23:30N 34°23' E 135°13'0 0.0
2017-Jun-18 21:45N 34°23' E 135°13'0 0.0
2017-Jun-18 21:27N 34°23' E 135°13'0 0.0
2017-Jun-18 20:33N 34°23' E 135°13'0 0.1
2017-Jun-18 20:30N 34°23' E 135°13'0 0.0
2017-Jun-18 20:00N 34°23' E 135°13'0 0.1
2017-Jun-18 19:30N 34°23' E 135°13'0 0.1
2017-Jun-18 19:01N 34°23' E 135°13'5 9.7
2017-Jun-18 18:31N 34°27' E 135°09'611.1
2017-Jun-18 18:01N 34°32' E 135°06'510.1
2017-Jun-18 17:30N 34°36' E 135°02'5 8.7
2017-Jun-18 16:58N 34°36' E 134°56'  
Track history (hours):
 
Tides and Currents Weather Stations Pressure Air Temp Water Temp Dewpoint Dewpoint Depression Visibility Wind Speed Wind Dir Waves Ship Positions

Houn Maru

Last reported at 2017-Jun-28 07:42 UTC. Time now 2017-Jun-29 14:26 UTC.
Position N 34°36' E 134°55'.

Length 91 m; draft 6 m.

Type: Tanker. MMSI: 431101172.

Date/timePositionNaut miles runAvg speedWind from/ knotsBaromVisibWave heightAir tempDewpointWater temp
2017-Jun-28 07:42N 34°36' E 134°55'3 9.8
2017-Jun-28 07:26N 34°37' E 134°58'4 8.5
2017-Jun-28 07:00N 34°37' E 135°02'510.1
2017-Jun-28 06:30N 34°33' E 135°06'612.0
2017-Jun-28 06:00N 34°27' E 135°09'5 8.1
2017-Jun-28 05:26N 34°25' E 135°14'0 0.0
2017-Jun-28 00:30N 34°25' E 135°14'0 0.4
2017-Jun-28 00:00N 34°25' E 135°14'2 3.9
2017-Jun-27 23:30N 34°23' E 135°13'0 0.0
2017-Jun-27 23:00N 34°23' E 135°13'0 0.0
2017-Jun-27 22:30N 34°23' E 135°13'0 0.0
2017-Jun-27 22:00N 34°23' E 135°13'0 0.0
2017-Jun-27 21:30N 34°23' E 135°13'0 0.0
2017-Jun-27 21:00N 34°23' E 135°13'0 0.0
2017-Jun-27 20:30N 34°23' E 135°13'0 0.0
2017-Jun-27 19:58N 34°23' E 135°13'0 0.0
2017-Jun-27 19:26N 34°23' E 135°13'0 0.0
2017-Jun-27 18:59N 34°23' E 135°13'0 0.0
2017-Jun-27 18:30N 34°23' E 135°13'0 0.0
2017-Jun-27 18:00N 34°23' E 135°13'0 0.0
2017-Jun-27 17:27N 34°23' E 135°13'3 5.9
2017-Jun-27 17:00N 34°25' E 135°10'611.6
2017-Jun-27 16:30N 34°30' E 135°06'510.7
2017-Jun-27 16:00N 34°35' E 135°04'4 8.7
2017-Jun-27 15:30N 34°37' E 134°59'11 0.3
2017-Jun-26 08:14N 34°33' E 134°47'511.0
2017-Jun-26 07:47N 34°35' E 134°52'310.2
2017-Jun-26 07:29N 34°36' E 134°56'5 9.1
2017-Jun-26 06:59N 34°37' E 135°01'3 6.8
2017-Jun-26 06:30N 34°35' E 135°04'4 8.9
2017-Jun-26 06:00N 34°32' E 135°07'611.4
2017-Jun-26 05:29N 34°26' E 135°10'4 7.7
2017-Jun-26 04:59N 34°25' E 135°14'0 0.2
2017-Jun-26 04:29N 34°25' E 135°14'0 0.0
2017-Jun-26 04:00N 34°25' E 135°14'0 0.0
2017-Jun-26 03:30N 34°25' E 135°14'0 0.0
2017-Jun-26 03:00N 34°25' E 135°14'0 0.0
2017-Jun-26 02:30N 34°25' E 135°14'0 0.0
2017-Jun-26 02:00N 34°25' E 135°14'0 0.0
2017-Jun-26 01:29N 34°25' E 135°14'0 0.0
2017-Jun-26 01:00N 34°25' E 135°14'0 0.0
2017-Jun-26 00:18N 34°25' E 135°14'0 1.2
2017-Jun-25 23:58N 34°25' E 135°14'2 2.1
2017-Jun-25 23:09N 34°23' E 135°13'0 0.0
2017-Jun-25 22:51N 34°23' E 135°13'0 0.0
2017-Jun-25 22:30N 34°23' E 135°13'0 0.0
2017-Jun-25 21:57N 34°23' E 135°13'0 0.0
2017-Jun-25 21:27N 34°23' E 135°13'0 0.0
2017-Jun-25 21:00N 34°23' E 135°13'0 0.0
2017-Jun-25 20:30N 34°23' E 135°13'0 0.0
2017-Jun-25 20:00N 34°23' E 135°13'0 0.0
2017-Jun-25 19:30N 34°23' E 135°13'0 0.0
2017-Jun-25 19:00N 34°23' E 135°13'0 0.0
2017-Jun-25 14:44N 34°23' E 135°13'2 3.0
2017-Jun-25 14:00N 34°25' E 135°11'611.4
2017-Jun-25 13:30N 34°30' E 135°07'510.5
2017-Jun-25 13:00N 34°34' E 135°04'4 7.2
2017-Jun-25 12:30N 34°37' E 135°01'4 0.1
2017-Jun-24 07:31N 34°37' E 134°56'013.4
2017-Jun-24 07:30N 34°37' E 134°56'510.6
2017-Jun-24 07:01N 34°37' E 135°02'4 8.3
2017-Jun-24 06:30N 34°34' E 135°06'510.7
2017-Jun-24 05:59N 34°29' E 135°09'511.5
2017-Jun-24 05:31N 34°24' E 135°12'2 0.3
2017-Jun-24 00:07N 34°25' E 135°14'0 1.2
2017-Jun-23 23:55N 34°25' E 135°14'2 4.5
2017-Jun-23 23:30N 34°23' E 135°13'0 0.1
2017-Jun-23 22:55N 34°23' E 135°13'0 0.0
2017-Jun-23 22:19N 34°23' E 135°13'0 0.0
2017-Jun-23 21:58N 34°23' E 135°13'0 0.0
2017-Jun-23 21:28N 34°23' E 135°13'0 0.0
2017-Jun-23 20:58N 34°23' E 135°13'0 0.0
2017-Jun-23 20:25N 34°23' E 135°13'0 0.0
2017-Jun-23 19:58N 34°23' E 135°13'0 0.0
2017-Jun-23 19:28N 34°23' E 135°13'0 0.0
2017-Jun-23 18:58N 34°23' E 135°13'0 0.0
2017-Jun-23 18:25N 34°23' E 135°13'0 0.0
2017-Jun-23 17:55N 34°23' E 135°13'0 0.0
2017-Jun-23 17:28N 34°23' E 135°13'0 0.0
2017-Jun-23 16:31N 34°23' E 135°13'0 0.0
2017-Jun-23 16:13N 34°23' E 135°13'0 0.1
2017-Jun-23 15:43N 34°23' E 135°13'0 0.0
2017-Jun-23 15:25N 34°23' E 135°13'0 1.1
2017-Jun-23 15:00N 34°24' E 135°12'1211.2
2017-Jun-23 13:59N 34°33' E 135°05'510.3
2017-Jun-23 13:30N 34°37' E 135°01'611.3
2017-Jun-23 13:00N 34°35' E 134°54'4 0.2
2017-Jun-22 12:47N 34°34' E 134°49'514.3
2017-Jun-22 12:25N 34°36' E 134°55'513.2
2017-Jun-22 12:00N 34°37' E 135°01'713.2
2017-Jun-22 11:30N 34°32' E 135°07'612.8
2017-Jun-22 11:00N 34°27' E 135°10'4 7.3
2017-Jun-22 10:30N 34°25' E 135°14'0 0.0
2017-Jun-22 05:28N 34°25' E 135°14'0 0.8
2017-Jun-22 05:00N 34°25' E 135°14'2 2.8
2017-Jun-22 04:27N 34°24' E 135°13'0 0.7
2017-Jun-22 03:58N 34°23' E 135°13'0 0.0
2017-Jun-22 03:25N 34°23' E 135°13'0 0.0
2017-Jun-22 02:58N 34°23' E 135°13'0 0.0
2017-Jun-22 00:46N 34°23' E 135°13'0 0.0
2017-Jun-22 00:19N 34°23' E 135°13'0 0.1
2017-Jun-21 23:43N 34°23' E 135°13'0 0.0
2017-Jun-21 23:25N 34°23' E 135°13'0 0.0
2017-Jun-21 22:55N 34°23' E 135°13'0 0.0
2017-Jun-21 22:28N 34°23' E 135°13'0 0.0
2017-Jun-21 21:55N 34°23' E 135°13'0 0.0
2017-Jun-21 21:28N 34°23' E 135°13'0 0.0
2017-Jun-21 20:58N 34°23' E 135°13'0 0.0
2017-Jun-21 20:28N 34°23' E 135°13'0 0.0
2017-Jun-21 19:58N 34°23' E 135°13'0 0.0
2017-Jun-21 19:16N 34°23' E 135°13'0 0.1
2017-Jun-21 18:58N 34°23' E 135°13'0 0.0
2017-Jun-21 18:25N 34°23' E 135°13'0 0.0
2017-Jun-21 17:58N 34°23' E 135°13'0 0.0
2017-Jun-21 17:22N 34°23' E 135°13'0 0.0
2017-Jun-21 14:43N 34°23' E 135°13'0 0.0
2017-Jun-21 13:37N 34°23' E 135°13'0 0.0
2017-Jun-21 12:34N 34°23' E 135°13'0 0.0
2017-Jun-21 12:25N 34°23' E 135°13'0 0.0
2017-Jun-21 11:43N 34°23' E 135°13'0 0.0
2017-Jun-21 11:25N 34°23' E 135°13'0 0.0
2017-Jun-21 06:07N 34°23' E 135°13'0 0.0
2017-Jun-21 05:58N 34°23' E 135°13'0 0.0
2017-Jun-21 01:49N 34°23' E 135°13'0 0.1
2017-Jun-21 01:08N 34°23' E 135°13'0 0.0
2017-Jun-21 00:56N 34°23' E 135°13'0 0.0
2017-Jun-21 00:14N 34°23' E 135°13'0 0.0
2017-Jun-20 23:58N 34°23' E 135°13'0 0.0
2017-Jun-20 23:22N 34°23' E 135°13'0 0.0
2017-Jun-20 22:59N 34°23' E 135°13'0 0.1
2017-Jun-20 22:16N 34°23' E 135°13'0 0.3
2017-Jun-20 21:49N 34°23' E 135°12'0 0.0
2017-Jun-20 21:07N 34°23' E 135°12'0 0.1
2017-Jun-20 20:55N 34°23' E 135°12'0 0.0
2017-Jun-20 20:25N 34°23' E 135°12'0 0.0
2017-Jun-20 19:49N 34°23' E 135°12'0 0.0
2017-Jun-20 19:19N 34°23' E 135°12'0 0.0
2017-Jun-20 18:37N 34°23' E 135°12'0 0.0
2017-Jun-20 18:25N 34°23' E 135°12'0 0.0
2017-Jun-20 17:55N 34°23' E 135°12'0 0.0
2017-Jun-20 17:25N 34°23' E 135°12'0 0.1
2017-Jun-20 16:55N 34°23' E 135°13'0 0.0
2017-Jun-20 16:25N 34°23' E 135°13'0 0.0
2017-Jun-20 15:43N 34°23' E 135°13'0 0.0
2017-Jun-20 15:01N 34°23' E 135°13'0 0.0
2017-Jun-20 14:49N 34°23' E 135°13'0 0.0
2017-Jun-20 13:55N 34°23' E 135°13'0 0.2
2017-Jun-20 13:25N 34°23' E 135°13'3 7.6
2017-Jun-20 13:00N 34°25' E 135°10'611.9
2017-Jun-20 12:30N 34°30' E 135°06'611.5
2017-Jun-20 12:00N 34°36' E 135°03'9 0.3
2017-Jun-19 07:17N 34°35' E 134°52'614.1
2017-Jun-19 06:51N 34°37' E 134°59'514.0
2017-Jun-19 06:30N 34°36' E 135°04'612.2
2017-Jun-19 06:00N 34°30' E 135°08'612.7
2017-Jun-19 05:30N 34°25' E 135°12'2 4.4
2017-Jun-19 05:00N 34°25' E 135°14'0 0.0
2017-Jun-19 00:10N 34°25' E 135°14'0 1.0
2017-Jun-18 23:57N 34°25' E 135°14'2 4.4
2017-Jun-18 23:30N 34°23' E 135°13'0 0.0
2017-Jun-18 21:45N 34°23' E 135°13'0 0.0
2017-Jun-18 21:27N 34°23' E 135°13'0 0.0
2017-Jun-18 20:33N 34°23' E 135°13'0 0.1
2017-Jun-18 20:30N 34°23' E 135°13'0 0.0
2017-Jun-18 20:00N 34°23' E 135°13'0 0.1
2017-Jun-18 19:30N 34°23' E 135°13'0 0.1
2017-Jun-18 19:01N 34°23' E 135°13'5 9.7
2017-Jun-18 18:31N 34°27' E 135°09'611.1
2017-Jun-18 18:01N 34°32' E 135°06'510.1
2017-Jun-18 17:30N 34°36' E 135°02'5 8.7
2017-Jun-18 16:58N 34°36' E 134°56'  

Dump ship's entire track history